Time;durP1;ratioP1;P1;durP2;ratioP2;P2;SDS_P1;SDS_P2;PMS_P1;PMS_P2;Temp;Humidity;BMP_temperature;BMP_pressure;BME280_temperature;BME280_humidity;BME280_pressure;Samples;Min_cycle;Max_cycle;Signal;HPM_P1;HPM_P2
2021/10/28 00:13:08;;;;;;;;;;;;;;;7.00;66.52;99639.13;5007677;28;19926;-79
2021/10/28 00:15:39;;;;;;;;;;;;;;;7.03;67.05;99637.44;5008220;28;19932;-79
2021/10/28 00:20:35;;;;;;;;;;;;;;;7.07;66.92;99627.97;5014185;28;19932;-78
2021/10/28 00:23:06;;;;;;;;;;;;;;;7.06;66.96;99627.06;5005188;28;19922;-80
2021/10/28 00:25:38;;;;;;;;;;;;;;;7.07;67.00;99627.97;5035571;28;19932;-82
2021/10/28 00:28:05;;;;;;;;;;;;;;;7.07;66.93;99620.19;5010846;28;19921;-79
2021/10/28 00:30:31;;;;;;;;;;;;;;;7.05;67.38;99619.31;5005919;28;19928;-79
2021/10/28 00:32:56;;;;;;;;;;;;;;;7.03;67.25;99619.34;5010938;28;19921;-78
2021/10/28 00:35:22;;;;;;;;;;;;;;;7.02;67.24;99611.53;5009232;28;19936;-78
2021/10/28 00:37:49;;;;;;;;;;;;;;;6.98;67.15;99610.69;5009120;28;19976;-80
2021/10/28 00:40:14;;;;;;;;;;;;;;;6.93;66.96;99592.56;5009259;28;19930;-76
2021/10/28 00:42:40;;;;;;;;;;;;;;;6.91;67.47;99596.00;5012916;28;19929;-76
2021/10/28 00:45:10;;;;;;;;;;;;;;;6.90;67.19;99594.25;5008786;28;19921;-78
2021/10/28 00:47:39;;;;;;;;;;;;;;;6.89;67.26;99583.06;4997015;28;20313;-76
2021/10/28 00:50:06;;;;;;;;;;;;;;;6.88;67.57;99583.94;5010210;28;19928;-77
2021/10/28 00:52:33;;;;;;;;;;;;;;;6.83;67.38;99575.28;5012021;28;19921;-77
2021/10/28 00:54:59;;;;;;;;;;;;;;;6.79;67.61;99573.53;5007594;28;19952;-78
2021/10/28 00:57:24;;;;;;;;;;;;;;;6.75;67.38;99566.63;5009062;28;19921;-75
2021/10/28 00:59:50;;;;;;;;;;;;;;;6.72;67.57;99561.47;4996002;28;19983;-76
2021/10/28 01:02:16;;;;;;;;;;;;;;;6.69;67.34;99558.88;5029762;28;20017;-79
2021/10/28 01:04:42;;;;;;;;;;;;;;;6.67;68.12;99558.00;5009060;28;19921;-76
2021/10/28 01:07:08;;;;;;;;;;;;;;;6.62;68.02;99553.69;5008267;28;20386;-78
2021/10/28 01:09:35;;;;;;;;;;;;;;;6.63;68.09;99547.66;4991647;28;21789;-78
2021/10/28 01:12:01;;;;;;;;;;;;;;;6.66;67.94;99549.38;4982485;28;19922;-81
2021/10/28 01:14:26;;;;;;;;;;;;;;;6.73;68.40;99535.59;5023377;28;19925;-78
2021/10/28 01:16:55;;;;;;;;;;;;;;;6.77;67.55;99529.59;5011404;28;19925;-80
2021/10/28 01:19:22;;;;;;;;;;;;;;;6.80;68.15;99533.88;5006773;28;19929;-77
2021/10/28 01:21:48;;;;;;;;;;;;;;;6.80;68.00;99528.72;5027346;28;19925;-78
2021/10/28 01:24:14;;;;;;;;;;;;;;;6.62;68.02;99496.78;5015804;28;19932;-79
2021/10/28 01:26:40;;;;;;;;;;;;;;;6.84;68.13;99519.25;5008282;28;19921;-77
2021/10/28 01:29:05;;;;;;;;;;;;;;;6.85;68.05;99519.25;5007786;28;20397;-80
2021/10/28 01:31:32;;;;;;;;;;;;;;;6.85;68.19;99516.66;5010719;28;19921;-79
2021/10/28 01:33:59;;;;;;;;;;;;;;;6.85;68.13;99511.50;4997792;28;19925;-77
2021/10/28 01:36:25;;;;;;;;;;;;;;;6.85;68.00;99510.63;5007632;28;19925;-77
2021/10/28 01:38:53;;;;;;;;;;;;;;;6.84;67.88;99502.00;4987860;28;20401;-81
2021/10/28 01:41:19;;;;;;;;;;;;;;;6.84;68.25;99491.66;4997147;28;19930;-77
2021/10/28 01:43:45;;;;;;;;;;;;;;;6.87;68.15;99491.66;5019775;28;19921;-78
2021/10/28 01:46:12;;;;;;;;;;;;;;;6.86;67.89;99487.34;5024330;28;19909;-77
2021/10/28 01:48:40;;;;;;;;;;;;;;;6.84;68.27;99481.31;5020731;28;19961;-79
2021/10/28 01:51:09;;;;;;;;;;;;;;;6.84;67.86;99489.06;5009305;28;19922;-82
2021/10/28 01:53:39;;;;;;;;;;;;;;;6.87;68.18;99480.44;4987257;28;19952;-80
2021/10/28 01:56:06;;;;;;;;;;;;;;;6.92;68.09;99469.25;5010974;28;19980;-77
2021/10/28 01:58:31;;;;;;;;;;;;;;;6.95;68.11;99473.56;5007748;28;19975;-79
2021/10/28 02:00:57;;;;;;;;;;;;;;;6.97;68.12;99468.38;5010993;28;19922;-77
2021/10/28 02:03:23;;;;;;;;;;;;;;;6.97;68.61;99464.09;5011995;28;19921;-79
2021/10/28 02:05:49;;;;;;;;;;;;;;;6.96;68.11;99453.72;5022274;28;20385;-78
2021/10/28 02:08:15;;;;;;;;;;;;;;;6.93;67.98;99455.47;4995016;28;19926;-79
2021/10/28 02:10:40;;;;;;;;;;;;;;;6.97;68.40;99453.72;5022435;28;19922;-79
2021/10/28 02:13:06;;;;;;;;;;;;;;;7.00;68.11;99450.28;4994658;28;19921;-77
2021/10/28 02:15:32;;;;;;;;;;;;;;;7.03;68.43;99439.94;5006419;28;19925;-78
2021/10/28 02:18:00;;;;;;;;;;;;;;;7.06;68.08;99442.53;5005099;28;19928;-78
2021/10/28 02:20:26;;;;;;;;;;;;;;;7.06;68.05;99443.38;5010309;28;20449;-80
2021/10/28 02:22:52;;;;;;;;;;;;;;;7.01;67.85;99439.06;5007569;28;19974;-81
2021/10/28 02:25:18;;;;;;;;;;;;;;;6.98;68.33;99424.41;4990226;28;20413;-78
2021/10/28 02:27:52;;;;;;;;;;;;;;;6.97;68.04;99424.41;5008026;28;19921;-77
2021/10/28 02:30:20;;;;;;;;;;;;;;;6.97;68.23;99429.56;4992569;28;19921;-77
2021/10/28 02:32:46;;;;;;;;;;;;;;;6.98;68.43;99418.38;5008612;28;19948;-78
2021/10/28 02:35:11;;;;;;;;;;;;;;;7.00;68.30;99416.66;4990422;28;19926;-80
2021/10/28 02:37:37;;;;;;;;;;;;;;;7.02;68.57;99415.78;5005434;28;19944;-80
2021/10/28 02:40:04;;;;;;;;;;;;;;;7.02;68.08;99407.16;5007491;28;19987;-78
2021/10/28 02:42:29;;;;;;;;;;;;;;;6.99;67.97;99397.69;5009502;28;19929;-78
2021/10/28 02:44:55;;;;;;;;;;;;;;;6.96;68.41;99404.56;5000779;28;19948;-78
2021/10/28 02:47:21;;;;;;;;;;;;;;;6.95;68.30;99402.88;5000977;28;19922;-77
2021/10/28 02:49:46;;;;;;;;;;;;;;;6.95;68.69;99392.53;5012865;28;19944;-77
2021/10/28 02:52:12;;;;;;;;;;;;;;;6.93;68.57;99385.63;5010580;28;19967;-77
2021/10/28 02:54:38;;;;;;;;;;;;;;;6.91;68.43;99384.75;5006684;28;20345;-80
2021/10/28 02:57:04;;;;;;;;;;;;;;;6.88;68.23;99369.25;4993462;28;19984;-77
2021/10/28 02:59:30;;;;;;;;;;;;;;;6.86;68.22;99373.56;5007919;28;19925;-80
2021/10/28 03:01:55;;;;;;;;;;;;;;;6.79;68.85;99356.31;5007171;28;19932;-76
2021/10/28 03:04:22;;;;;;;;;;;;;;;6.86;68.48;99357.16;5007441;28;20023;-77
2021/10/28 03:06:48;;;;;;;;;;;;;;;6.85;68.58;99358.88;5011657;28;19932;-78
2021/10/28 03:09:16;;;;;;;;;;;;;;;6.84;68.59;99344.22;5015043;28;19925;-77
2021/10/28 03:11:43;;;;;;;;;;;;;;;6.85;68.54;99343.38;5029666;28;19922;-79
2021/10/28 03:14:11;;;;;;;;;;;;;;;6.85;68.46;99333.03;5018384;28;19929;-79
2021/10/28 03:17:43;;;;;;;;;;;;;;;6.87;68.90;99325.25;5009348;28;20021;-78
2021/10/28 03:27:27;;;;;;;;;;;;;;;6.73;68.92;99320.13;5019468;28;19923;-77
2021/10/28 03:29:52;;;;;;;;;;;;;;;6.71;69.24;99312.34;5009757;28;19933;-77
2021/10/28 03:32:21;;;;;;;;;;;;;;;6.72;68.95;99305.47;5008459;28;19922;-80
2021/10/28 03:34:48;;;;;;;;;;;;;;;6.75;69.16;99311.50;5028741;28;19930;-78
2021/10/28 04:30:24;;;;;;;;;;;;;;;6.42;70.96;99289.94;5008791;28;20007;-76
2021/10/28 04:32:51;;;;;;;;;;;;;;;6.41;70.26;99282.22;5006138;28;19937;-76
2021/10/28 04:35:17;;;;;;;;;;;;;;;6.41;70.98;99292.53;5007233;28;20304;-78
2021/10/28 04:37:44;;;;;;;;;;;;;;;6.41;70.92;99287.38;4992755;28;19921;-78
2021/10/28 04:40:10;;;;;;;;;;;;;;;6.39;70.85;99276.19;5003887;28;19925;-79
2021/10/28 04:42:36;;;;;;;;;;;;;;;6.38;70.98;99270.16;5005300;28;19925;-76
2021/10/28 04:45:01;;;;;;;;;;;;;;;6.39;70.84;99271.00;5004629;28;19921;-79
2021/10/28 04:47:28;;;;;;;;;;;;;;;6.39;71.14;99273.59;5014845;28;19925;-78
2021/10/28 04:49:55;;;;;;;;;;;;;;;6.36;70.93;99266.72;5006946;28;19986;-81
2021/10/28 04:52:22;;;;;;;;;;;;;;;6.33;71.02;99270.13;5005000;28;20313;-78
2021/10/28 04:54:48;;;;;;;;;;;;;;;6.32;71.74;99270.16;5005686;28;19933;-77
2021/10/28 04:57:13;;;;;;;;;;;;;;;6.30;71.42;99264.13;5021653;28;19921;-80
2021/10/28 04:59:39;;;;;;;;;;;;;;;6.31;71.98;99268.44;4986987;28;20279;-77
2021/10/28 05:02:05;;;;;;;;;;;;;;;6.32;71.96;99264.97;4993200;28;19922;-78
2021/10/28 05:04:33;;;;;;;;;;;;;;;6.33;71.91;99266.72;5004184;28;20131;-79
2021/10/28 05:07:01;;;;;;;;;;;;;;;6.36;72.07;99258.97;5007112;28;19921;-77
2021/10/28 05:09:29;;;;;;;;;;;;;;;6.38;72.01;99264.13;5007849;28;19929;-78
2021/10/28 05:11:55;;;;;;;;;;;;;;;6.38;72.13;99262.41;4993613;28;19925;-78
2021/10/28 05:14:21;;;;;;;;;;;;;;;6.39;72.77;99266.72;5003482;28;19925;-78
2021/10/28 05:16:46;;;;;;;;;;;;;;;6.43;72.49;99255.50;5005019;28;19944;-81
2021/10/28 05:19:12;;;;;;;;;;;;;;;6.46;72.74;99262.41;4993840;28;19921;-77
2021/10/28 05:21:40;;;;;;;;;;;;;;;6.46;72.77;99262.41;4992198;28;19929;-76
2021/10/28 05:24:11;;;;;;;;;;;;;;;6.48;72.80;99260.69;5006109;28;20083;-77
2021/10/28 05:26:37;;;;;;;;;;;;;;;6.50;73.01;99264.13;5004315;28;20100;-79
2021/10/28 05:29:06;;;;;;;;;;;;;;;6.51;73.21;99264.97;4989094;28;19932;-77
2021/10/28 05:31:32;;;;;;;;;;;;;;;6.56;72.86;99266.69;5009680;28;20027;-79
2021/10/28 05:35:02;;;;;;;;;;;;;;;;;;;;;
2021/10/28 05:38:41;;;;;;;;;;;;;;;6.62;73.24;99260.66;5010864;28;19957;-79
2021/10/28 05:41:39;;;;;;;;;;;;;;;6.61;73.15;99253.78;5008946;28;19972;-79
2021/10/28 05:45:09;;;;;;;;;;;;;;;6.63;73.37;99257.19;5019584;28;20059;-81
2021/10/28 05:47:44;;;;;;;;;;;;;;;6.68;73.84;99252.03;4952063;28;19925;-81
2021/10/28 05:50:16;;;;;;;;;;;;;;;6.70;73.64;99248.56;5028852;28;20028;-79
2021/10/28 05:53:41;;;;;;;;;;;;;;;5.95;74.26;99122.88;5016641;28;19932;-80
2021/10/28 05:56:16;;;;;;;;;;;;;;;6.92;73.85;99249.41;4997855;28;20458;-79
2021/10/28 05:58:42;;;;;;;;;;;;;;;6.95;73.63;99240.75;5015025;28;19909;-80
2021/10/28 06:01:07;;;;;;;;;;;;;;;6.92;74.08;99239.03;5013783;28;19913;-78
2021/10/28 06:03:36;;;;;;;;;;;;;;;6.92;73.70;99246.81;5011024;28;19925;-78
2021/10/28 06:06:02;;;;;;;;;;;;;;;6.93;74.38;99245.94;4990476;28;20024;-77
2021/10/28 06:08:28;;;;;;;;;;;;;;;7.00;74.06;99239.00;4994796;28;20282;-76
2021/10/28 06:10:54;;;;;;;;;;;;;;;7.03;74.21;99235.53;5011410;28;19927;-76
2021/10/28 06:13:24;;;;;;;;;;;;;;;7.04;74.38;99240.72;5002445;28;20020;-79
2021/10/28 06:15:52;;;;;;;;;;;;;;;7.07;74.68;99232.09;5003462;28;19921;-77
2021/10/28 06:18:36;;;;;;;;;;;;;;;7.13;74.68;99229.50;5004837;28;19922;-76
2021/10/28 06:21:06;;;;;;;;;;;;;;;7.18;74.73;99235.47;5009623;28;19921;-76
2021/10/28 06:23:38;;;;;;;;;;;;;;;7.24;74.50;99237.22;5003206;28;19925;-79
2021/10/28 06:26:13;;;;;;;;;;;;;;;7.37;74.54;99232.84;4988874;28;19925;-79
2021/10/28 06:28:45;;;;;;;;;;;;;;;7.56;74.86;99235.31;5005625;28;19921;-77
2021/10/28 06:31:14;;;;;;;;;;;;;;;7.65;74.63;99232.66;5010215;28;19921;-77
2021/10/28 06:33:47;;;;;;;;;;;;;;;7.69;74.72;99235.25;4976432;28;19934;-78
2021/10/28 06:36:35;;;;;;;;;;;;;;;7.47;74.34;99198.25;4992762;28;19927;-78
2021/10/28 06:39:00;;;;;;;;;;;;;;;7.67;74.60;99244.75;4992772;28;19925;-78
2021/10/28 06:41:30;;;;;;;;;;;;;;;7.66;74.34;99235.25;5005200;28;19921;-80
2021/10/28 06:44:00;;;;;;;;;;;;;;;7.71;74.59;99245.59;4993244;28;19933;-77
2021/10/28 06:51:20;;;;;;;;;;;;;;;7.73;75.10;99240.38;5023087;28;20383;-78
2021/10/28 06:54:16;;;;;;;;;;;;;;;;;;;;;
2021/10/28 07:04:29;;;;;;;;;;;;;;;;;;;;;
2021/10/28 07:11:38;;;;;;;;;;;;;;;8.07;74.98;99256.56;4969793;28;20051;-77
2021/10/28 07:14:07;;;;;;;;;;;;;;;8.11;75.20;99254.81;5000677;28;20024;-80
2021/10/28 07:16:42;;;;;;;;;;;;;;;8.17;75.29;99246.97;5008799;28;19927;-77
2021/10/28 07:57:42;;;;;;;;;;;;;;;9.00;74.49;99255.75;5004688;28;20365;-78
2021/10/28 08:19:41;;;;;;;;;;;;;;;9.32;74.19;99280.50;5008922;28;20009;-79
2021/10/28 08:22:36;;;;;;;;;;;;;;;9.40;74.48;99270.00;5002472;28;20024;-80
2021/10/28 08:31:25;;;;;;;;;;;;;;;9.62;74.05;99280.13;4971088;28;19989;-77
2021/10/28 08:33:55;;;;;;;;;;;;;;;9.71;73.91;99292.97;4990822;28;19925;-77
2021/10/28 08:36:44;;;;;;;;;;;;;;;9.75;74.12;99280.81;4996766;28;19982;-77
2021/10/28 08:40:14;;;;;;;;;;;;;;;9.81;73.45;99291.13;4997562;28;19931;-78
2021/10/28 08:42:53;;;;;;;;;;;;;;;9.83;73.87;99289.34;4975064;28;20024;-78
2021/10/28 08:45:21;;;;;;;;;;;;;;;9.83;73.51;99294.53;5004486;28;19921;-79
2021/10/28 08:47:56;;;;;;;;;;;;;;;9.87;73.39;99293.63;4991045;28;20520;-80
2021/10/28 08:50:36;;;;;;;;;;;;;;;9.93;73.68;99305.69;4990681;28;19925;-79
2021/10/28 08:56:01;;;;;;;;;;;;;;;10.09;73.80;99304.59;5023017;28;19932;-77
2021/10/28 09:25:10;;;;;;;;;;;;;;;12.85;70.66;99285.13;5007924;28;19937;-78
2021/10/28 09:30:40;;;;;;;;;;;;;;;12.95;70.47;99301.41;5005903;28;19963;-77
2021/10/28 09:33:07;;;;;;;;;;;;;;;13.04;69.85;99308.97;5006756;28;19925;-77
2021/10/28 09:35:58;;;;;;;;;;;;;;;12.94;69.44;99303.16;5009679;28;19932;-79
2021/10/28 09:45:02;;;;;;;;;;;;;;;13.16;69.61;99314.78;5006380;28;20301;-79
2021/10/28 09:47:06;;;;;;;;;;;;;;;13.47;68.64;99306.97;5001813;28;19921;-79
2021/10/28 09:50:00;;;;;;;;;;;;;;;13.64;69.13;99311.72;5007317;28;19947;-79
2021/10/28 09:52:29;;;;;;;;;;;;;;;14.20;69.32;99309.19;5007852;28;20016;-81
2021/10/28 09:57:47;;;;;;;;;;;;;;;14.50;67.48;99311.72;5024868;28;20004;-77
2021/10/28 09:58:04;;;;;;;;;;;;;;;14.34;66.67;99309.59;5013294;28;19933;-79
2021/10/28 10:00:34;;;;;;;;;;;;;;;14.43;67.42;99311.94;5009078;28;19926;-80
2021/10/28 10:03:07;;;;;;;;;;;;;;;14.50;66.83;99317.81;4970749;28;19931;-79
2021/10/28 10:05:33;;;;;;;;;;;;;;;14.46;66.42;99324.91;5002229;28;19925;-81
2021/10/28 10:08:00;;;;;;;;;;;;;;;14.31;66.46;99322.78;5009935;28;19968;-81
2021/10/28 10:10:28;;;;;;;;;;;;;;;14.12;65.76;99330.38;5022322;28;19988;-79
2021/10/28 10:13:05;;;;;;;;;;;;;;;13.93;66.26;99325.69;5017697;28;19997;-80
2021/10/28 10:15:31;;;;;;;;;;;;;;;13.97;66.50;99334.31;5026820;28;19930;-79
2021/10/28 10:18:04;;;;;;;;;;;;;;;13.98;66.05;99331.63;5008697;28;20437;-78
2021/10/28 10:20:40;;;;;;;;;;;;;;;13.90;66.23;99320.56;4992124;28;19981;-80
2021/10/28 10:26:10;;;;;;;;;;;;;;;13.99;66.26;99335.13;5008701;28;20048;-80
2021/10/28 11:21:55;;;;;;;;;;;;;;;14.04;64.47;99403.81;4996419;28;19922;-79
2021/10/28 11:33:13;;;;;;;;;;;;;;;14.00;64.11;99394.38;5006276;28;19966;-80
2021/10/28 12:19:49;;;;;;;;;;;;;;;12.96;63.76;99492.00;5011808;28;19922;-77
2021/10/28 12:43:33;;;;;;;;;;;;;;;12.49;64.19;99536.56;4989406;28;19948;-78
2021/10/28 13:02:34;;;;;;;;;;;;;;;12.48;63.31;99601.81;5023917;28;19921;-82
2021/10/28 14:38:58;;;;;;;;;;;;;;;10.65;65.51;99846.72;4999001;28;19922;-81
2021/10/28 15:28:39;;;;;;;;;;;;;;;10.52;66.44;99970.84;5014656;28;19921;-79
2021/10/28 15:31:35;;;;;;;;;;;;;;;10.51;66.32;99979.50;4998765;28;19921;-81
2021/10/28 16:23:59;;;;;;;;;;;;;;;9.96;66.96;100108.84;5018765;28;19925;-80
2021/10/28 16:26:32;;;;;;;;;;;;;;;9.98;66.47;100116.66;5004163;28;19949;-79
2021/10/28 16:29:12;;;;;;;;;;;;;;;10.02;66.36;100124.44;5017864;28;20408;-81
2021/10/28 16:31:51;;;;;;;;;;;;;;;10.00;65.83;100130.50;5018037;28;19922;-81
2021/10/28 16:34:18;;;;;;;;;;;;;;;9.94;66.24;100140.03;5009746;28;19921;-81
2021/10/28 16:36:45;;;;;;;;;;;;;;;9.92;66.49;100139.19;5029457;28;19925;-80
2021/10/28 16:39:13;;;;;;;;;;;;;;;9.84;66.65;100142.66;5019133;28;19956;-81
2021/10/28 16:41:41;;;;;;;;;;;;;;;9.84;66.46;100155.66;5017282;28;19921;-80
2021/10/28 16:44:07;;;;;;;;;;;;;;;9.80;65.96;100171.22;5017320;28;19921;-78
2021/10/28 16:46:37;;;;;;;;;;;;;;;9.79;66.60;100177.31;5017321;28;19925;-80
2021/10/28 16:49:06;;;;;;;;;;;;;;;9.76;66.42;100185.09;5024693;28;19921;-79
2021/10/28 16:51:32;;;;;;;;;;;;;;;9.69;66.46;100191.16;5024516;28;20067;-78
2021/10/28 16:53:58;;;;;;;;;;;;;;;9.65;66.05;100194.63;5024692;28;19965;-81
2021/10/28 16:56:24;;;;;;;;;;;;;;;9.67;65.95;100205.88;5022300;28;19925;-81
2021/10/28 16:58:54;;;;;;;;;;;;;;;9.66;65.90;100206.75;5008241;28;19922;-76
2021/10/28 17:01:20;;;;;;;;;;;;;;;9.62;66.34;100213.66;5022556;28;19921;-78
2021/10/28 17:03:46;;;;;;;;;;;;;;;9.50;65.94;100230.09;5019751;28;19921;-79
2021/10/28 17:06:16;;;;;;;;;;;;;;;9.45;65.69;100231.81;5024618;28;19925;-81
2021/10/28 17:08:55;;;;;;;;;;;;;;;9.46;66.16;100235.28;5021722;28;19928;-77
2021/10/28 17:11:27;;;;;;;;;;;;;;;9.44;65.65;100237.00;5004251;28;19926;-81
2021/10/28 17:13:53;;;;;;;;;;;;;;;9.40;64.99;100246.53;4994738;28;19952;-79
2021/10/28 17:16:21;;;;;;;;;;;;;;;9.41;65.86;100244.78;5028238;28;19956;-81
2021/10/28 17:18:57;;;;;;;;;;;;;;;9.43;65.55;100248.25;5027760;28;19976;-81
2021/10/28 17:21:36;;;;;;;;;;;;;;;9.44;65.60;100252.59;5012702;28;20015;-80
2021/10/28 17:24:06;;;;;;;;;;;;;;;9.44;65.57;100269.06;5019680;28;19928;-81
2021/10/28 17:26:32;;;;;;;;;;;;;;;9.44;65.53;100269.06;5024262;28;20004;-82
2021/10/28 17:29:00;;;;;;;;;;;;;;;9.40;65.26;100276.81;5004408;28;20001;-79
2021/10/28 17:31:29;;;;;;;;;;;;;;;9.39;65.17;100295.84;5034099;28;19928;-83
2021/10/28 17:33:56;;;;;;;;;;;;;;;9.40;65.29;100284.59;5017190;28;19926;-80
2021/10/28 17:36:23;;;;;;;;;;;;;;;9.38;64.93;100288.94;5012425;28;19952;-79
2021/10/28 17:38:51;;;;;;;;;;;;;;;9.34;65.04;100278.53;5008848;28;19921;-79
2021/10/28 17:41:17;;;;;;;;;;;;;;;9.31;64.78;100290.63;4992275;28;19972;-79
2021/10/28 17:43:45;;;;;;;;;;;;;;;9.30;64.92;100288.91;5009107;28;19926;-80
2021/10/28 17:46:13;;;;;;;;;;;;;;;9.03;64.69;100260.22;5011331;28;19972;-79
2021/10/28 17:48:39;;;;;;;;;;;;;;;9.18;65.25;100284.50;5011666;28;19952;-78
2021/10/28 17:51:05;;;;;;;;;;;;;;;9.11;64.37;100291.41;5012793;28;19985;-78
2021/10/28 17:53:31;;;;;;;;;;;;;;;9.02;64.88;100289.63;5013107;28;19926;-77
2021/10/28 17:55:57;;;;;;;;;;;;;;;8.95;64.65;100295.66;5016971;28;19925;-80
2021/10/28 17:58:24;;;;;;;;;;;;;;;8.85;64.44;100292.13;5013715;28;19945;-82
2021/10/28 18:00:52;;;;;;;;;;;;;;;8.83;64.62;100305.97;5011510;28;19925;-81
2021/10/28 18:03:20;;;;;;;;;;;;;;;8.87;64.81;100305.13;5008665;28;20286;-79
2021/10/28 18:05:47;;;;;;;;;;;;;;;8.87;64.52;100310.31;5008853;28;19968;-79
2021/10/28 18:08:13;;;;;;;;;;;;;;;8.84;64.23;100310.31;4997661;28;19926;-81
2021/10/28 18:10:39;;;;;;;;;;;;;;;8.79;64.04;100312.00;5006917;28;19927;-78
2021/10/28 18:13:05;;;;;;;;;;;;;;;8.73;64.32;100315.41;4993500;28;19925;-79
2021/10/28 18:15:31;;;;;;;;;;;;;;;8.74;64.16;100320.59;5004194;28;21015;-80
2021/10/28 18:17:59;;;;;;;;;;;;;;;8.77;64.08;100324.97;5004908;28;23190;-79
2021/10/28 18:20:25;;;;;;;;;;;;;;;8.80;63.54;100340.56;5001201;28;19925;-80
2021/10/28 18:22:51;;;;;;;;;;;;;;;8.73;63.89;100346.56;5004434;28;19944;-79
2021/10/28 18:25:17;;;;;;;;;;;;;;;8.75;63.75;100355.22;4993449;28;19969;-82
2021/10/28 18:27:43;;;;;;;;;;;;;;;8.73;63.93;100359.53;5004777;28;19921;-76
2021/10/28 18:30:13;;;;;;;;;;;;;;;8.78;63.81;100367.34;5024022;28;19922;-81
2021/10/28 18:32:41;;;;;;;;;;;;;;;8.80;63.89;100376.91;5006710;28;20428;-78
2021/10/28 18:35:07;;;;;;;;;;;;;;;8.80;63.48;100381.19;5005405;28;19921;-78
2021/10/28 18:37:35;;;;;;;;;;;;;;;8.84;63.50;100395.94;4974739;28;20028;-81
2021/10/28 18:40:01;;;;;;;;;;;;;;;8.90;63.12;100403.78;4993443;28;20432;-80
2021/10/28 18:42:28;;;;;;;;;;;;;;;8.95;63.05;100404.66;5029617;28;19909;-80
2021/10/28 18:44:54;;;;;;;;;;;;;;;8.96;63.24;100411.59;5020127;28;19932;-79
2021/10/28 18:47:20;;;;;;;;;;;;;;;8.96;62.78;100411.59;4988339;28;19921;-81
2021/10/28 18:49:49;;;;;;;;;;;;;;;9.00;62.83;100422.91;4992735;28;19933;-81
2021/10/28 18:52:15;;;;;;;;;;;;;;;8.98;62.65;100428.06;5023527;28;19922;-80
2021/10/28 18:54:41;;;;;;;;;;;;;;;9.02;63.03;100437.63;5011360;28;20667;-80
2021/10/28 18:57:06;;;;;;;;;;;;;;;9.07;62.34;100436.78;5028125;28;19931;-80
2021/10/28 18:59:32;;;;;;;;;;;;;;;9.05;62.57;100444.53;5009543;28;20751;-79
2021/10/28 19:02:01;;;;;;;;;;;;;;;9.07;62.37;100453.22;5005044;28;19921;-79
2021/10/28 19:04:31;;;;;;;;;;;;;;;9.07;62.40;100454.97;5006835;28;20341;-81
2021/10/28 19:06:57;;;;;;;;;;;;;;;9.08;62.14;100467.09;4994127;28;21042;-81
2021/10/28 19:09:22;;;;;;;;;;;;;;;8.91;62.29;100435.78;5012338;28;20428;-82
2021/10/28 19:11:48;;;;;;;;;;;;;;;9.10;62.08;100463.63;4999108;28;19921;-81
2021/10/28 19:14:14;;;;;;;;;;;;;;;9.15;62.35;100468.88;5010236;28;19929;-80
2021/10/28 19:16:54;;;;;;;;;;;;;;;9.17;62.35;100467.13;5009525;28;19929;-81
2021/10/28 19:19:34;;;;;;;;;;;;;;;9.14;62.46;100469.72;4988777;28;19932;-80
2021/10/28 19:22:00;;;;;;;;;;;;;;;9.15;62.05;100469.72;5007710;28;19922;-80
2021/10/28 19:24:26;;;;;;;;;;;;;;;9.16;62.10;100479.25;5020300;28;19984;-78
2021/10/28 19:26:51;;;;;;;;;;;;;;;9.16;61.79;100475.78;5022606;28;19927;-78
2021/10/28 19:29:18;;;;;;;;;;;;;;;9.16;61.57;100489.66;5010682;28;20079;-79
2021/10/28 19:31:52;;;;;;;;;;;;;;;9.14;61.52;100478.38;4992508;28;19940;-80
2021/10/28 19:34:18;;;;;;;;;;;;;;;9.16;61.67;100478.38;5003638;28;19988;-81
2021/10/28 19:42:34;;;;;;;;;;;;;;;9.12;60.63;100477.50;5003447;28;19992;-79
2021/10/28 19:47:28;;;;;;;;;;;;;;;9.13;61.58;100492.22;5005932;28;19927;-80
2021/10/28 19:49:54;;;;;;;;;;;;;;;9.15;61.42;100497.44;5005573;28;19987;-78
2021/10/28 19:52:33;;;;;;;;;;;;;;;9.17;61.60;100500.88;5003466;28;19928;-79
2021/10/28 19:55:17;;;;;;;;;;;;;;;9.21;61.70;100502.66;4977848;28;19925;-82
2021/10/28 19:58:28;;;;;;;;;;;;;;;9.17;61.15;100509.56;4999868;28;19945;-83
2021/10/28 20:01:07;;;;;;;;;;;;;;;9.18;61.25;100516.50;4993364;28;20056;-80
2021/10/28 20:22:33;;;;;;;;;;;;;;;9.28;60.62;100517.44;5005957;28;19976;-83
2021/10/28 20:24:58;;;;;;;;;;;;;;;9.26;60.42;100515.72;4990724;28;19983;-81
2021/10/28 20:27:24;;;;;;;;;;;;;;;9.27;60.58;100525.25;5004888;28;19925;-79
2021/10/28 20:29:51;;;;;;;;;;;;;;;9.24;60.44;100522.59;5006991;28;19921;-83
2021/10/28 20:32:19;;;;;;;;;;;;;;;9.20;60.38;100532.09;5004324;28;19922;-81
2021/10/28 20:35:07;;;;;;;;;;;;;;;9.21;60.45;100527.78;5011764;28;19971;-81
2021/10/28 20:37:34;;;;;;;;;;;;;;;9.22;60.35;100529.50;4981941;28;19924;-83
2021/10/28 20:40:01;;;;;;;;;;;;;;;9.21;60.63;100523.44;4996452;28;20011;-80
2021/10/28 20:42:39;;;;;;;;;;;;;;;9.21;60.33;100532.97;5007503;28;19966;-80
2021/10/28 20:45:12;;;;;;;;;;;;;;;9.13;60.70;100531.16;5012088;28;19992;-80
2021/10/28 20:47:41;;;;;;;;;;;;;;;9.13;60.47;100532.91;5018343;28;19933;-79
2021/10/28 20:50:09;;;;;;;;;;;;;;;9.17;60.60;100540.72;5027635;28;20412;-81
2021/10/28 20:52:35;;;;;;;;;;;;;;;9.22;60.50;100551.16;5020987;28;19932;-81
2021/10/28 20:55:01;;;;;;;;;;;;;;;9.29;60.42;100567.66;5000508;28;20381;-78
2021/10/28 20:57:27;;;;;;;;;;;;;;;9.33;60.69;100557.31;5010041;28;19926;-80
2021/10/28 20:59:54;;;;;;;;;;;;;;;9.35;60.02;100562.50;5013559;28;19925;-79
2021/10/28 21:02:25;;;;;;;;;;;;;;;9.33;60.35;100562.50;5012668;28;20023;-81
2021/10/28 21:04:50;;;;;;;;;;;;;;;9.38;60.41;100561.69;4992769;28;19922;-82
2021/10/28 21:07:17;;;;;;;;;;;;;;;9.39;60.18;100556.50;5013046;28;19926;-81
2021/10/28 21:09:42;;;;;;;;;;;;;;;9.34;59.58;100553.88;5008188;28;20381;-78
2021/10/28 21:12:08;;;;;;;;;;;;;;;9.36;60.06;100550.41;5007739;28;19928;-81
2021/10/28 21:14:37;;;;;;;;;;;;;;;9.33;60.22;100562.50;5011900;28;20965;-81
2021/10/28 21:17:04;;;;;;;;;;;;;;;9.34;60.19;100564.25;5027884;28;19921;-82
2021/10/28 21:19:29;;;;;;;;;;;;;;;9.39;60.25;100572.06;5015762;28;19925;-79
2021/10/28 21:21:55;;;;;;;;;;;;;;;9.42;59.71;100574.69;5009411;28;20986;-79
2021/10/28 21:24:21;;;;;;;;;;;;;;;9.45;60.15;100574.72;4998474;28;19928;-81
2021/10/28 21:26:47;;;;;;;;;;;;;;;9.47;59.93;100577.31;5013397;28;19929;-81
2021/10/28 21:29:12;;;;;;;;;;;;;;;9.42;60.26;100584.22;5011601;28;19928;-77
2021/10/28 21:31:38;;;;;;;;;;;;;;;9.36;59.57;100594.56;5004699;28;19921;-79
2021/10/28 21:34:05;;;;;;;;;;;;;;;9.40;59.94;100592.00;5010350;28;20376;-78
2021/10/28 21:36:31;;;;;;;;;;;;;;;9.40;59.91;100591.13;5007559;28;19926;-80
2021/10/28 21:38:56;;;;;;;;;;;;;;;9.40;59.40;100591.13;5007029;28;19925;-79
2021/10/28 21:41:22;;;;;;;;;;;;;;;9.38;59.35;100598.06;5010889;28;19929;-81
2021/10/28 21:43:51;;;;;;;;;;;;;;;9.31;59.59;100592.78;5008902;28;19921;-80
2021/10/28 21:46:17;;;;;;;;;;;;;;;9.38;60.18;100603.25;5005833;28;19921;-78
2021/10/28 21:48:43;;;;;;;;;;;;;;;9.43;59.94;100611.94;5008228;28;19928;-82
2021/10/28 21:51:09;;;;;;;;;;;;;;;9.47;60.00;100613.69;5007375;28;19944;-82
2021/10/28 21:53:39;;;;;;;;;;;;;;;9.48;59.59;100621.53;4993370;28;20478;-82
2021/10/28 21:56:12;;;;;;;;;;;;;;;9.50;59.60;100622.38;5007869;28;20420;-80
2021/10/28 22:04:06;;;;;;;;;;;;;;;9.47;59.91;100622.38;4994517;28;19921;-81
2021/10/28 22:06:53;;;;;;;;;;;;;;;9.49;59.51;100623.22;4977259;28;19959;-81
2021/10/28 22:25:47;;;;;;;;;;;;;;;9.34;59.91;100642.19;5005397;28;19961;-79
2021/10/28 22:28:13;;;;;;;;;;;;;;;9.15;59.69;100611.69;4993484;28;19921;-79
2021/10/28 22:30:39;;;;;;;;;;;;;;;9.44;59.59;100656.13;5020307;28;20435;-78
2021/10/28 22:33:05;;;;;;;;;;;;;;;9.49;59.78;100654.41;4991145;28;19933;-79
2021/10/28 22:43:18;;;;;;;;;;;;;;;9.54;59.05;100663.97;5002093;28;20234;-82
2021/10/28 22:45:44;;;;;;;;;;;;;;;9.61;59.28;100664.03;5005182;28;19922;-78
2021/10/28 22:48:11;;;;;;;;;;;;;;;9.60;59.07;100674.44;4991223;28;19968;-77
2021/10/28 22:50:41;;;;;;;;;;;;;;;9.61;59.36;100669.25;5003745;28;19922;-80
2021/10/28 22:53:08;;;;;;;;;;;;;;;9.63;59.06;100682.28;5024302;28;20099;-80
2021/10/28 22:55:38;;;;;;;;;;;;;;;9.63;58.97;100687.47;5012968;28;19974;-79
2021/10/28 23:00:44;;;;;;;;;;;;;;;9.61;59.32;100679.63;4995533;28;20032;-79
2021/10/28 23:16:23;;;;;;;;;;;;;;;9.68;59.30;100703.09;5007609;28;19980;-79